logo
Search for airport 
image banner adimage banner adimage banner ad
image banner ad

OPLA - Lahore / Aiiap International

Located in Lahore, Pakistan

ICAO - OPLA, IATA - LHE

Data provided by Airmate  

General information

Coordinates: N31°31'18" E74°24'16"
Elevation is 712 feet MSL.
 
Rated:
View ratings:
[VIEW]
View others Airports in Punjab

Operational data

Special qualification required
Current time UTC:
Current local time:
Weather
METAR: OPLA 130555Z 32012KT 6000 SCT040 BKN100 28/12 Q1012 TEMPO 32015G30KT RMK QFE986 A29.90
TAF: TAF OPLA 130500Z 1306/1412 35012KT 5000 HZ SCT040 SCT100 TX32/1410Z TN18/1400Z TEMPO 1308/1312 03015G30KT 2000 DRDU SCT040 BKN100 TEMPO 1315/1319 03020G40KT 1500 TSRA FEW030CB SCT040 OVC100 TEMPO 1322/1401 03015KT 4000 -TSRA FEW030CB SCT040 BKN100 TEMPO 1406/1410 09015G35KT 2000 TSRA FEW030CB SCT040 BKN100
View NOTAMs / SUP AIP / TFR affecting this airport [VIEW]
Communications frequencies: [VIEW]

Runways:

RWY identifierQFULength (ft)Width (ft)SurfaceLDA (ft)
18R181°8999151ASP
36L8999151ASP
18L181°11024148CON
36R11024148CON

Airport contact information

Address: Lahore Pakistan

Satellite view of OPLA